Time;durP1;ratioP1;P1;durP2;ratioP2;P2;SDS_P1;SDS_P2;PMS_P1;PMS_P2;Temp;Humidity;BMP_temperature;BMP_pressure;BME280_temperature;BME280_humidity;BME280_pressure;Samples;Min_cycle;Max_cycle;Signal;HPM_P1;HPM_P2
2021/08/31 00:01:02;;;;;;;11.50;6.07;;;;;;;13.92;100.00;96908.34;4997909;28;20034;-65
2021/08/31 00:03:28;;;;;;;10.15;6.03;;;;;;;13.94;100.00;96912.28;4996443;28;20046;-66
2021/08/31 00:05:53;;;;;;;8.90;6.18;;;;;;;13.95;100.00;96910.28;4995036;28;20161;-66
2021/08/31 00:08:22;;;;;;;12.10;6.38;;;;;;;13.94;100.00;96911.47;4983076;28;20418;-66
2021/08/31 00:10:47;;;;;;;9.30;6.18;;;;;;;13.87;100.00;96908.69;4998547;28;20092;-67
2021/08/31 00:13:13;;;;;;;9.10;6.30;;;;;;;13.98;100.00;96914.25;4980886;28;20081;-66
2021/08/31 00:15:38;;;;;;;11.45;6.20;;;;;;;13.96;100.00;96917.41;4990488;28;20038;-67
2021/08/31 00:18:04;;;;;;;10.40;5.90;;;;;;;14.02;100.00;96912.31;4995842;28;20049;-63
2021/08/31 00:20:30;;;;;;;10.32;6.40;;;;;;;14.02;100.00;96915.06;4983669;28;20094;-66
2021/08/31 00:22:55;;;;;;;14.73;9.77;;;;;;;13.99;100.00;96915.81;4988535;28;20065;-66
2021/08/31 00:25:21;;;;;;;11.80;6.53;;;;;;;14.01;100.00;96911.53;4980879;28;20104;-66
2021/08/31 00:27:46;;;;;;;9.88;6.20;;;;;;;14.01;100.00;96914.28;4992128;28;20046;-66
2021/08/31 00:30:12;;;;;;;13.30;5.95;;;;;;;13.96;100.00;96915.44;4979095;28;20121;-66
2021/08/31 00:32:37;;;;;;;12.05;6.53;;;;;;;13.92;100.00;96911.09;4980798;28;20046;-66
2021/08/31 00:35:04;;;;;;;10.48;6.82;;;;;;;13.89;100.00;96911.84;4958623;28;20042;-65
2021/08/31 00:37:30;;;;;;;9.50;6.47;;;;;;;13.90;100.00;96913.41;4944692;28;20030;-66
2021/08/31 00:39:55;;;;;;;10.23;6.03;;;;;;;13.82;100.00;96918.09;4985204;28;20042;-66
2021/08/31 00:42:21;;;;;;;11.55;6.32;;;;;;;13.73;100.00;96912.13;4977652;28;20475;-65
2021/08/31 00:44:47;;;;;;;9.82;7.07;;;;;;;13.64;100.00;96909.69;4990252;28;20039;-66
2021/08/31 00:47:12;;;;;;;10.82;6.55;;;;;;;13.64;100.00;96909.69;4978693;28;20466;-66
2021/08/31 00:49:37;;;;;;;11.07;6.60;;;;;;;13.74;100.00;96906.25;4983265;28;20428;-66
2021/08/31 00:52:04;;;;;;;18.45;7.55;;;;;;;13.74;100.00;96903.47;4981118;28;20043;-66
2021/08/31 00:54:30;;;;;;;16.80;7.82;;;;;;;13.69;100.00;96914.06;4981800;28;20038;-66
2021/08/31 00:56:57;;;;;;;11.75;6.90;;;;;;;13.61;100.00;96915.94;4984041;28;20046;-66
2021/08/31 00:59:23;;;;;;;13.70;7.13;;;;;;;13.65;100.00;96911.28;4979310;28;20302;-64
2021/08/31 01:01:53;;;;;;;12.10;6.97;;;;;;;13.68;100.00;96912.47;4982386;28;20047;-65
2021/08/31 01:04:28;;;;;;;12.07;6.78;;;;;;;13.70;100.00;96913.69;4976933;28;20042;-63
2021/08/31 01:06:55;;;;;;;10.95;7.50;;;;;;;13.70;100.00;96913.69;4981762;28;20039;-64
2021/08/31 01:09:22;;;;;;;10.07;6.53;;;;;;;13.69;100.00;96911.31;4976904;28;20038;-64
2021/08/31 01:11:49;;;;;;;10.95;6.72;;;;;;;13.66;100.00;96910.09;4984483;28;20046;-65
2021/08/31 01:14:16;;;;;;;14.43;7.93;;;;;;;13.68;100.00;96910.50;4971154;28;20042;-65
2021/08/31 01:16:42;;;;;;;11.15;6.70;;;;;;;13.64;100.00;96917.94;4962940;28;20054;-65
2021/08/31 01:19:08;;;;;;;10.00;6.70;;;;;;;13.55;100.00;96915.50;4976907;28;20035;-65
2021/08/31 01:21:34;;;;;;;10.90;7.25;;;;;;;13.44;100.00;96917.41;4964357;28;20049;-66
2021/08/31 01:24:00;;;;;;;13.38;6.82;;;;;;;13.32;100.00;96925.94;4981194;28;20137;-65
2021/08/31 01:26:27;;;;;;;11.07;7.07;;;;;;;13.22;100.00;96926.59;4975464;28;20121;-65
2021/08/31 01:28:53;;;;;;;14.25;7.78;;;;;;;13.19;100.00;96915.16;4982299;28;20042;-66
2021/08/31 01:31:18;;;;;;;13.45;7.45;;;;;;;13.18;100.00;96918.28;4978187;28;20213;-66
2021/08/31 01:33:44;;;;;;;11.43;7.40;;;;;;;13.17;100.00;96927.72;4981001;28;20801;-66
2021/08/31 01:36:27;;;;;;;12.88;7.03;;;;;;;13.24;100.00;96918.75;4975705;28;20053;-66
2021/08/31 01:38:57;;;;;;;11.73;7.30;;;;;;;13.24;100.00;96919.56;4981852;28;20050;-66
2021/08/31 01:41:24;;;;;;;12.40;8.15;;;;;;;13.12;100.00;96928.06;4974040;28;20803;-66
2021/08/31 01:43:50;;;;;;;10.73;7.38;;;;;;;12.98;100.00;96926.78;4981249;28;20060;-66
2021/08/31 01:46:15;;;;;;;10.85;7.15;;;;;;;13.02;100.00;96924.06;4976138;28;20137;-64
2021/08/31 01:48:41;;;;;;;13.93;7.07;;;;;;;13.13;100.00;96929.66;4982119;28;20042;-65
2021/08/31 01:51:07;;;;;;;12.18;6.85;;;;;;;13.15;100.00;96933.59;4977163;28;20039;-66
2021/08/31 01:53:33;;;;;;;14.35;6.75;;;;;;;13.20;100.00;96924.22;4962800;28;20046;-66
2021/08/31 01:55:59;;;;;;;10.88;7.40;;;;;;;13.27;100.00;96931.75;4982296;28;20049;-66
2021/08/31 01:58:24;;;;;;;12.60;7.13;;;;;;;13.35;100.00;96933.44;4976665;28;20046;-66
2021/08/31 02:00:50;;;;;;;10.55;7.32;;;;;;;13.35;100.00;96938.94;4980263;28;20057;-65
2021/08/31 02:03:15;;;;;;;11.82;7.18;;;;;;;13.32;100.00;96934.97;4976605;28;20141;-65
2021/08/31 02:05:41;;;;;;;12.40;7.57;;;;;;;13.25;100.00;96934.09;4981914;28;20511;-65
2021/08/31 02:08:06;;;;;;;11.82;7.82;;;;;;;13.25;100.00;96947.84;4976497;28;20137;-65
2021/08/31 02:10:33;;;;;;;13.20;7.38;;;;;;;13.26;100.00;96941.19;4979986;28;20065;-66
2021/08/31 02:12:58;;;;;;;12.45;8.00;;;;;;;13.32;100.00;96947.94;4980065;28;20100;-65
2021/08/31 02:15:23;;;;;;;9.88;6.55;;;;;;;13.36;100.00;96940.50;4974785;28;20259;-66
2021/08/31 02:17:50;;;;;;;9.90;6.82;;;;;;;13.42;100.00;96938.22;4981056;28;20053;-66
2021/08/31 02:20:15;;;;;;;10.63;7.05;;;;;;;13.45;100.00;96932.75;4975828;28;20046;-67
2021/08/31 02:22:41;;;;;;;9.63;6.38;;;;;;;13.48;100.00;96933.94;4980447;28;20130;-66
2021/08/31 02:25:08;;;;;;;9.65;6.47;;;;;;;13.49;100.00;96933.56;4957077;28;20042;-65
2021/08/31 02:27:34;;;;;;;10.43;6.30;;;;;;;13.53;100.00;96937.13;4962442;28;20046;-65
2021/08/31 02:29:59;;;;;;;10.98;6.57;;;;;;;13.57;100.00;96943.44;4982072;28;20034;-65
2021/08/31 02:32:25;;;;;;;11.27;6.07;;;;;;;13.58;100.00;96936.78;4965768;28;20046;-66
2021/08/31 02:34:50;;;;;;;11.25;7.00;;;;;;;13.53;100.00;96936.34;4990126;28;20049;-66
2021/08/31 02:37:16;;;;;;;10.50;6.45;;;;;;;13.47;100.00;96940.59;4978101;28;20406;-66
2021/08/31 02:39:41;;;;;;;8.45;5.55;;;;;;;13.45;100.00;96937.44;4980444;28;20046;-66
2021/08/31 02:42:07;;;;;;;9.95;5.72;;;;;;;13.45;100.00;96931.94;4976443;28;20038;-65
2021/08/31 02:44:33;;;;;;;10.52;6.55;;;;;;;13.39;100.00;96924.03;4961876;28;20142;-65
2021/08/31 02:46:58;;;;;;;9.93;6.82;;;;;;;13.38;100.00;96932.69;4978011;28;20129;-66
2021/08/31 02:49:24;;;;;;;16.27;8.45;;;;;;;13.27;100.00;96924.31;4975429;28;20463;-67
2021/08/31 02:51:49;;;;;;;11.77;6.72;;;;;;;13.06;100.00;96924.88;4981052;28;20404;-66
2021/08/31 02:54:15;;;;;;;11.32;7.22;;;;;;;12.95;100.00;96930.25;4953058;28;20050;-65
2021/08/31 02:56:40;;;;;;;10.70;6.88;;;;;;;12.96;100.00;96929.09;5000541;28;20046;-66
2021/08/31 02:59:05;;;;;;;11.82;7.22;;;;;;;13.03;100.00;96928.38;4995466;28;20046;-66
2021/08/31 03:03:57;;;;;;;10.52;6.72;;;;;;;13.18;100.00;96935.59;5002642;28;20165;-66
2021/08/31 03:06:27;;;;;;;10.27;6.20;;;;;;;13.20;100.00;96936.03;4976379;28;20245;-65
2021/08/31 03:08:54;;;;;;;12.40;7.25;;;;;;;13.15;100.00;96936.34;5000169;28;20038;-66
2021/08/31 03:11:19;;;;;;;13.30;7.22;;;;;;;13.24;100.00;96941.56;4984570;28;20050;-63
2021/08/31 03:13:45;;;;;;;12.60;7.45;;;;;;;13.30;100.00;96942.00;4980097;28;20455;-65
2021/08/31 03:16:10;;;;;;;10.20;5.80;;;;;;;13.31;100.00;96940.88;4975488;28;20867;-65
2021/08/31 03:18:36;;;;;;;15.75;6.53;;;;;;;13.30;100.00;96942.00;4977920;28;20038;-65
2021/08/31 03:21:01;;;;;;;11.02;6.53;;;;;;;13.28;100.00;96941.59;4980267;28;20492;-65
2021/08/31 03:23:27;;;;;;;12.05;6.78;;;;;;;13.28;100.00;96944.34;4975190;28;20468;-66
2021/08/31 03:25:52;;;;;;;14.15;7.10;;;;;;;13.20;100.00;96946.25;4979540;28;20035;-64
2021/08/31 03:28:18;;;;;;;10.65;6.78;;;;;;;13.10;100.00;96944.94;4957203;28;20042;-64
2021/08/31 03:30:44;;;;;;;10.45;6.88;;;;;;;13.04;100.00;96942.94;4978118;28;20053;-66
2021/08/31 03:33:09;;;;;;;8.95;6.22;;;;;;;13.07;100.00;96944.91;4969377;28;20048;-63
2021/08/31 03:35:35;;;;;;;9.48;6.38;;;;;;;13.11;100.00;96949.28;4962246;28;20042;-65
2021/08/31 03:38:00;;;;;;;11.05;7.00;;;;;;;13.17;100.00;96952.47;4980312;28;20495;-64
2021/08/31 03:40:26;;;;;;;11.85;6.53;;;;;;;13.15;100.00;96954.81;4972210;28;20046;-64
2021/08/31 03:42:51;;;;;;;14.02;7.50;;;;;;;13.11;100.00;96952.03;4980357;28;20141;-66
2021/08/31 03:45:17;;;;;;;10.80;6.72;;;;;;;13.01;100.00;96948.00;4975602;28;20043;-66
2021/08/31 03:47:42;;;;;;;12.75;7.38;;;;;;;12.95;100.00;96952.25;4980277;28;20049;-64
2021/08/31 03:50:09;;;;;;;11.60;6.50;;;;;;;12.92;100.00;96949.47;4972410;28;20047;-66
2021/08/31 03:52:35;;;;;;;9.93;6.88;;;;;;;12.92;100.00;96954.97;4944170;28;20050;-65
2021/08/31 03:55:01;;;;;;;12.57;7.10;;;;;;;12.92;100.00;96960.47;4962240;28;20049;-65
2021/08/31 03:57:26;;;;;;;13.02;7.65;;;;;;;12.98;100.00;96958.94;4973579;28;20042;-66
2021/08/31 03:59:52;;;;;;;13.68;7.55;;;;;;;12.90;100.00;96966.34;4979318;28;20050;-65
2021/08/31 04:02:18;;;;;;;12.20;7.30;;;;;;;12.85;100.00;96960.38;4975286;28;20085;-65
2021/08/31 04:04:44;;;;;;;13.18;7.20;;;;;;;12.74;100.00;96968.50;4980350;28;20531;-67
2021/08/31 04:07:09;;;;;;;14.63;7.75;;;;;;;12.68;100.00;96964.50;4973205;28;20042;-66
2021/08/31 04:09:35;;;;;;;12.73;6.90;;;;;;;12.68;100.00;96965.28;4979797;28;20503;-67
2021/08/31 04:12:00;;;;;;;13.23;7.10;;;;;;;12.70;100.00;96967.69;4979863;28;20388;-67
2021/08/31 04:14:26;;;;;;;15.23;8.65;;;;;;;12.77;100.00;96965.78;4974412;28;20042;-66
2021/08/31 04:16:51;;;;;;;13.30;6.93;;;;;;;12.76;100.00;96968.91;4981272;28;20038;-67
2021/08/31 04:19:17;;;;;;;11.20;7.13;;;;;;;12.75;100.00;96970.09;4978937;28;20046;-67
2021/08/31 04:21:42;;;;;;;13.70;7.05;;;;;;;12.86;100.00;96975.72;4983770;28;20050;-67
2021/08/31 04:24:08;;;;;;;11.40;6.85;;;;;;;12.93;100.00;96973.06;4960449;28;20046;-65
2021/08/31 04:26:34;;;;;;;12.88;7.50;;;;;;;12.90;100.00;96976.53;4949834;28;20034;-66
2021/08/31 04:29:00;;;;;;;13.30;7.80;;;;;;;12.91;100.00;96984.41;4983168;28;20061;-65
2021/08/31 04:31:25;;;;;;;11.32;7.40;;;;;;;12.92;100.00;96979.72;4972724;28;20104;-66
2021/08/31 04:33:51;;;;;;;14.18;7.50;;;;;;;13.01;100.00;96980.97;4983094;28;20049;-65
2021/08/31 04:36:18;;;;;;;11.35;7.70;;;;;;;13.03;100.00;96979.84;4975811;28;20077;-64
2021/08/31 04:38:43;;;;;;;12.15;7.43;;;;;;;12.91;100.00;96983.59;4978947;28;20478;-67
2021/08/31 04:41:10;;;;;;;11.02;7.57;;;;;;;12.82;100.00;96984.72;4975787;28;20251;-65
2021/08/31 04:43:35;;;;;;;13.23;8.65;;;;;;;12.76;100.00;96991.69;4966228;28;20049;-65
2021/08/31 04:46:01;;;;;;;13.65;7.88;;;;;;;12.71;100.00;96980.22;4982887;28;20046;-65
2021/08/31 04:48:26;;;;;;;14.68;7.65;;;;;;;12.67;100.00;96980.19;4977935;28;20049;-65
2021/08/31 04:50:52;;;;;;;13.65;8.48;;;;;;;12.66;100.00;96984.13;4980554;28;20046;-65
2021/08/31 04:53:17;;;;;;;13.00;7.45;;;;;;;12.72;100.00;96984.56;4959821;28;20046;-65
2021/08/31 04:55:43;;;;;;;12.80;8.00;;;;;;;12.79;100.00;96979.16;4981083;28;20045;-63
2021/08/31 04:58:09;;;;;;;13.73;7.68;;;;;;;12.80;100.00;96980.72;4978769;28;20041;-65
2021/08/31 05:00:34;;;;;;;12.75;7.68;;;;;;;12.78;100.00;96983.06;4982851;28;20184;-63
2021/08/31 05:03:00;;;;;;;11.10;6.80;;;;;;;12.83;100.00;96996.47;4982948;28;20427;-66
2021/08/31 05:05:25;;;;;;;14.70;7.93;;;;;;;12.89;100.00;96985.94;4976297;28;20406;-66
2021/08/31 05:07:51;;;;;;;14.38;8.27;;;;;;;12.97;100.00;96991.16;4980882;28;20054;-64
2021/08/31 05:10:16;;;;;;;12.40;8.07;;;;;;;13.08;100.00;96979.50;4977855;28;20042;-65
2021/08/31 05:12:41;;;;;;;11.95;8.15;;;;;;;13.03;100.00;96983.38;4979019;28;20206;-65
2021/08/31 05:15:08;;;;;;;10.73;6.97;;;;;;;13.08;100.00;96983.03;4977820;28;20050;-66
2021/08/31 05:17:34;;;;;;;10.50;6.78;;;;;;;13.15;100.00;96988.59;4982011;28;20038;-66
2021/08/31 05:20:00;;;;;;;12.77;6.82;;;;;;;13.03;100.00;96979.84;4979271;28;20137;-66
2021/08/31 05:22:27;;;;;;;12.18;7.75;;;;;;;12.98;100.00;96987.25;4976597;28;20042;-67
2021/08/31 05:24:56;;;;;;;15.18;7.88;;;;;;;12.99;100.00;96990.78;4982616;28;20038;-66
2021/08/31 05:27:24;;;;;;;13.32;7.82;;;;;;;12.90;100.00;96985.56;4968634;28;20233;-67
2021/08/31 05:29:50;;;;;;;14.32;7.70;;;;;;;12.67;100.00;96993.16;4945758;28;20041;-65
2021/08/31 05:32:16;;;;;;;16.40;7.63;;;;;;;12.52;100.00;96995.72;4959983;28;20393;-65
2021/08/31 05:34:42;;;;;;;12.02;7.82;;;;;;;12.72;100.00;97001.84;4972253;28;20065;-66
2021/08/31 05:37:08;;;;;;;14.90;7.97;;;;;;;13.67;100.00;96994.25;4968348;28;20039;-66
2021/08/31 05:39:34;;;;;;;12.00;7.45;;;;;;;14.02;100.00;96998.47;4977518;28;20073;-66
2021/08/31 05:42:05;;;;;;;9.70;6.45;;;;;;;15.39;100.00;96993.63;4981424;28;20639;-65
2021/08/31 05:44:31;;;;;;;11.68;6.15;;;;;;;16.44;96.15;96998.03;4988612;28;20043;-65
2021/08/31 05:46:57;;;;;;;7.10;5.10;;;;;;;17.08;93.19;97002.56;4994821;28;20050;-65
2021/08/31 05:49:23;;;;;;;8.95;5.10;;;;;;;16.80;92.39;97003.47;4956534;28;20133;-65
2021/08/31 05:51:49;;;;;;;8.27;5.57;;;;;;;17.14;90.42;97006.50;4981269;28;20057;-65
2021/08/31 05:54:14;;;;;;;10.10;5.15;;;;;;;15.90;96.32;97011.06;4974371;28;20043;-62
2021/08/31 05:56:40;;;;;;;9.93;5.65;;;;;;;15.71;99.98;97012.25;4978370;28;20050;-65
2021/08/31 05:59:05;;;;;;;11.13;5.32;;;;;;;14.70;100.00;97011.91;4975941;28;20066;-64
2021/08/31 06:01:31;;;;;;;9.32;6.35;;;;;;;14.19;100.00;97027.34;4981477;28;20403;-65
2021/08/31 06:03:56;;;;;;;11.57;6.35;;;;;;;14.29;100.00;97018.34;4980038;28;20572;-65
2021/08/31 06:06:22;;;;;;;11.90;7.28;;;;;;;14.29;100.00;97021.09;4979128;28;20113;-64
2021/08/31 06:08:47;;;;;;;11.85;6.80;;;;;;;14.30;100.00;97017.16;4966173;28;20042;-64
2021/08/31 06:11:17;;;;;;;9.32;6.35;;;;;;;14.27;100.00;97020.69;4955441;28;20515;-64
2021/08/31 06:13:43;;;;;;;9.90;7.25;;;;;;;14.24;100.00;97026.16;4952537;28;20046;-63
2021/08/31 06:16:08;;;;;;;11.57;6.72;;;;;;;14.45;100.00;97023.56;4937364;28;20054;-65
2021/08/31 06:18:34;;;;;;;11.18;6.55;;;;;;;14.64;100.00;97033.56;4962132;28;20147;-66
2021/08/31 06:21:00;;;;;;;13.05;6.53;;;;;;;14.82;100.00;97027.31;4961468;28;20043;-65
2021/08/31 06:23:25;;;;;;;11.27;6.32;;;;;;;14.16;100.00;97036.34;4955732;28;20046;-65
2021/08/31 06:25:51;;;;;;;14.70;6.85;;;;;;;14.24;100.00;97035.25;4960307;28;20039;-66
2021/08/31 06:28:16;;;;;;;11.70;6.97;;;;;;;14.25;100.00;97045.06;4956056;28;20448;-65
2021/08/31 06:30:41;;;;;;;14.82;7.70;;;;;;;14.07;100.00;97038.66;4978823;28;20050;-66
2021/08/31 06:33:09;;;;;;;14.57;8.60;;;;;;;13.95;100.00;97037.78;4976494;28;20046;-66
2021/08/31 06:35:36;;;;;;;12.90;8.27;;;;;;;13.80;100.00;97040.78;4964444;28;20503;-65
2021/08/31 06:38:02;;;;;;;11.50;8.13;;;;;;;13.97;100.00;97048.38;4980305;28;20042;-64
2021/08/31 06:40:28;;;;;;;11.20;7.85;;;;;;;14.16;100.00;97050.13;4977855;28;20503;-66
2021/08/31 06:42:53;;;;;;;13.30;8.10;;;;;;;14.23;100.00;97063.94;4978825;28;20097;-66
2021/08/31 06:45:19;;;;;;;13.45;7.47;;;;;;;14.33;100.00;97056.94;4972701;28;20917;-65
2021/08/31 06:47:45;;;;;;;11.48;7.00;;;;;;;14.47;100.00;97065.28;4978843;28;20042;-65
2021/08/31 06:50:15;;;;;;;12.38;7.60;;;;;;;14.30;100.00;97064.00;4976035;28;20042;-64
2021/08/31 06:52:42;;;;;;;13.07;8.18;;;;;;;14.18;100.00;97064.31;4977803;28;20507;-65
2021/08/31 06:55:09;;;;;;;10.65;7.53;;;;;;;14.25;100.00;97066.34;4955586;28;20074;-65
2021/08/31 06:57:35;;;;;;;16.42;9.30;;;;;;;14.20;100.00;97063.94;4981438;28;20108;-64
2021/08/31 07:00:00;;;;;;;13.00;8.63;;;;;;;14.29;100.00;97064.38;4980878;28;20396;-64
2021/08/31 07:02:25;;;;;;;13.57;8.55;;;;;;;14.04;100.00;97066.94;4982330;28;20053;-63
2021/08/31 07:04:52;;;;;;;13.65;8.82;;;;;;;13.84;100.00;97069.13;4994605;28;20038;-64
2021/08/31 07:07:18;;;;;;;15.10;9.10;;;;;;;13.90;100.00;97071.16;4983719;28;20042;-66
2021/08/31 07:09:43;;;;;;;13.73;8.55;;;;;;;14.25;100.00;97071.84;4987044;28;20710;-65
2021/08/31 07:12:11;;;;;;;14.20;8.88;;;;;;;14.54;100.00;97073.63;4982423;28;20069;-65
2021/08/31 07:14:37;;;;;;;12.32;8.00;;;;;;;14.48;100.00;97077.13;4982517;28;20438;-64
2021/08/31 07:17:03;;;;;;;12.25;7.50;;;;;;;14.62;100.00;97080.00;4978991;28;20049;-62
2021/08/31 07:19:28;;;;;;;15.55;8.43;;;;;;;14.67;100.00;97082.38;4971656;28;20042;-66
2021/08/31 07:21:54;;;;;;;12.80;8.02;;;;;;;14.48;100.00;97077.91;4986259;28;20133;-66
2021/08/31 07:24:19;;;;;;;12.40;7.95;;;;;;;14.60;100.00;97078.81;4981891;28;20039;-64
2021/08/31 07:26:45;;;;;;;12.75;8.60;;;;;;;14.53;100.00;97079.50;4986520;28;20125;-65
2021/08/31 07:29:10;;;;;;;12.85;8.60;;;;;;;14.72;100.00;97081.25;4978312;28;20045;-63
2021/08/31 07:31:36;;;;;;;12.27;7.93;;;;;;;14.65;100.00;97089.47;4990838;28;20066;-65
2021/08/31 07:34:01;;;;;;;13.45;8.25;;;;;;;14.51;100.00;97090.94;4999923;28;20127;-64
2021/08/31 07:36:26;;;;;;;13.43;8.65;;;;;;;14.63;100.00;97091.81;4995090;28;20137;-65
2021/08/31 07:38:54;;;;;;;12.40;7.53;;;;;;;14.98;100.00;97094.00;4994402;28;20042;-65
2021/08/31 07:41:21;;;;;;;12.52;7.70;;;;;;;15.31;100.00;97094.16;4985430;28;20046;-64
2021/08/31 07:43:46;;;;;;;15.57;7.68;;;;;;;15.38;100.00;97091.44;4999566;28;20038;-65
2021/08/31 07:46:13;;;;;;;12.00;6.78;;;;;;;15.65;100.00;97100.97;4983703;28;20565;-66
2021/08/31 07:48:38;;;;;;;11.38;6.88;;;;;;;15.98;100.00;97098.31;4988208;28;20050;-66
2021/08/31 07:51:04;;;;;;;55.63;35.53;;;;;;;16.34;99.88;97103.88;4982526;28;20129;-62
2021/08/31 07:53:31;;;;;;;9.48;6.75;;;;;;;16.77;96.85;97106.59;4974346;28;20104;-66
2021/08/31 07:55:56;;;;;;;8.60;6.22;;;;;;;17.11;94.31;97106.16;4990845;28;20436;-66
2021/08/31 07:58:22;;;;;;;9.95;6.20;;;;;;;17.45;91.94;97100.88;4996995;28;20385;-65
2021/08/31 08:00:47;;;;;;;8.93;5.63;;;;;;;17.19;88.80;97108.47;4999274;28;20048;-64
2021/08/31 08:03:13;;;;;;;8.35;5.63;;;;;;;16.97;89.48;97102.22;4987626;28;20045;-66
2021/08/31 08:05:38;;;;;;;10.27;5.47;;;;;;;18.12;85.69;97100.94;4996916;28;20052;-64
2021/08/31 08:08:04;;;;;;;7.28;4.93;;;;;;;19.29;81.46;97095.50;4998615;28;20224;-62
2021/08/31 08:10:29;;;;;;;7.10;4.75;;;;;;;20.55;74.89;97102.06;4992955;28;20053;-64
2021/08/31 08:12:55;;;;;;;8.52;4.50;;;;;;;22.15;65.59;97098.56;4989690;28;20046;-66
2021/08/31 08:15:22;;;;;;;8.98;4.30;;;;;;;21.85;64.92;97097.63;4986624;28;20495;-64
2021/08/31 08:17:48;;;;;;;6.18;3.58;;;;;;;21.53;64.68;97101.09;5001709;28;20064;-68
2021/08/31 08:20:14;;;;;;;7.63;4.05;;;;;;;21.75;63.78;97105.00;4997981;28;20483;-66
2021/08/31 08:22:39;;;;;;;7.30;3.67;;;;;;;19.35;69.41;97098.59;4984700;28;20050;-66
2021/08/31 08:25:06;;;;;;;6.72;4.03;;;;;;;17.20;78.23;97107.31;4985671;28;20046;-62
2021/08/31 08:27:32;;;;;;;6.82;3.88;;;;;;;17.46;80.97;97105.22;4990691;28;20134;-65
2021/08/31 08:29:57;;;;;;;9.50;3.65;;;;;;;16.66;85.91;97097.53;4991021;28;20042;-67
2021/08/31 08:32:22;;;;;;;6.70;4.00;;;;;;;16.49;86.59;97108.19;4977975;28;20097;-66
2021/08/31 08:34:48;;;;;;;6.63;4.28;;;;;;;16.25;88.24;97107.78;4983910;28;20046;-67
2021/08/31 08:37:14;;;;;;;8.48;3.90;;;;;;;15.93;85.31;97101.44;4971864;28;20058;-66
2021/08/31 08:39:39;;;;;;;8.73;4.15;;;;;;;16.28;85.90;97100.72;4976293;28;20109;-64
2021/08/31 08:42:05;;;;;;;6.90;4.38;;;;;;;16.42;86.10;97100.72;4978569;28;20845;-61
2021/08/31 08:44:31;;;;;;;8.30;4.45;;;;;;;16.91;82.98;97106.59;4982500;28;20643;-64
2021/08/31 08:46:57;;;;;;;6.75;4.18;;;;;;;17.35;80.44;97118.31;4994694;28;20048;-66
2021/08/31 08:49:23;;;;;;;6.65;4.45;;;;;;;17.74;78.56;97109.06;4987582;28;20534;-66
2021/08/31 08:51:52;;;;;;;7.53;4.25;;;;;;;17.96;75.98;97106.97;4990708;28;20503;-66
2021/08/31 08:54:17;;;;;;;6.47;3.80;;;;;;;18.87;72.88;97105.06;4994910;28;20065;-65
2021/08/31 08:56:44;;;;;;;6.05;4.25;;;;;;;19.70;68.52;97106.88;4992821;28;20092;-66
2021/08/31 08:59:09;;;;;;;9.15;4.07;;;;;;;20.40;66.60;97112.66;4989790;28;20129;-66
2021/08/31 09:01:44;;;;;;;6.97;3.95;;;;;;;20.34;65.84;97116.31;4988825;28;20045;-66
2021/08/31 09:04:11;;;;;;;6.40;3.70;;;;;;;19.87;70.30;97114.22;4980911;28;20042;-63
2021/08/31 09:06:37;;;;;;;6.25;3.72;;;;;;;19.71;69.85;97123.16;4988551;28;20054;-66
2021/08/31 09:09:06;;;;;;;5.72;3.75;;;;;;;19.93;69.73;97117.31;4983209;28;20057;-62
2021/08/31 09:11:46;;;;;;;6.57;3.78;;;;;;;19.79;68.57;97118.31;4973422;28;20045;-64
2021/08/31 09:14:33;;;;;;;6.00;3.92;;;;;;;18.85;71.17;97118.56;4977354;28;20395;-65
2021/08/31 09:17:00;;;;;;;5.82;3.83;;;;;;;17.54;76.93;97115.09;4987711;28;20136;-65
2021/08/31 09:19:31;;;;;;;6.03;4.18;;;;;;;17.74;77.40;97125.69;4979394;28;20042;-65
2021/08/31 09:22:17;;;;;;;8.07;4.13;;;;;;;18.20;76.05;97124.63;4982876;28;20133;-64
2021/08/31 09:24:56;;;;;;;5.55;3.50;;;;;;;18.39;75.26;97122.53;4982482;28;20042;-64
2021/08/31 09:27:45;;;;;;;5.95;3.85;;;;;;;18.44;74.53;97125.66;4975527;28;20046;-64
2021/08/31 09:30:22;;;;;;;5.05;3.30;;;;;;;18.51;75.48;97131.13;4977407;28;20092;-65
2021/08/31 09:33:08;;;;;;;6.35;3.47;;;;;;;18.11;76.07;97129.84;4989880;28;20092;-65
2021/08/31 09:35:39;;;;;;;4.68;3.17;;;;;;;18.37;74.09;97127.69;4991349;28;20046;-65
2021/08/31 09:38:12;;;;;;;4.88;3.33;;;;;;;18.22;72.64;97130.56;4985470;28;20039;-62
2021/08/31 09:40:47;;;;;;;4.43;2.90;;;;;;;17.60;74.34;97142.38;4985540;28;20065;-64
2021/08/31 09:43:17;;;;;;;4.55;2.95;;;;;;;17.51;77.21;97135.25;4978111;28;20491;-65
2021/08/31 09:45:47;;;;;;;4.38;2.85;;;;;;;17.60;77.53;97132.06;4989217;28;20050;-64
2021/08/31 09:48:15;;;;;;;7.72;3.67;;;;;;;16.70;81.23;97132.28;4984064;28;20541;-63
2021/08/31 09:50:43;;;;;;;6.57;3.70;;;;;;;16.42;84.39;97125.59;4979336;28;20096;-65
2021/08/31 09:53:11;;;;;;;7.10;4.13;;;;;;;16.69;84.00;97130.72;4975192;28;20624;-63
2021/08/31 09:55:38;;;;;;;6.13;4.03;;;;;;;17.06;82.00;97134.25;4980765;28;20058;-65
2021/08/31 09:58:10;;;;;;;6.10;3.70;;;;;;;16.91;83.25;97133.47;4981963;28;20189;-60
2021/08/31 10:00:37;;;;;;;7.35;3.90;;;;;;;16.99;84.56;97130.28;4978511;28;20116;-64
2021/08/31 10:03:03;;;;;;;15.57;3.53;;;;;;;17.53;83.36;97134.88;4978215;28;20045;-61
2021/08/31 10:05:31;;;;;;;4.40;2.65;;;;;;;17.57;76.56;97136.44;4976742;28;21313;-65
2021/08/31 10:07:57;;;;;;;5.63;3.38;;;;;;;18.00;76.48;97140.22;4978100;28;20046;-65
2021/08/31 10:10:24;;;;;;;5.55;3.22;;;;;;;17.05;78.20;97141.75;4977033;28;20065;-64
2021/08/31 10:12:52;;;;;;;4.70;2.58;;;;;;;16.41;80.79;97135.06;4977345;28;20100;-65
2021/08/31 10:15:21;;;;;;;3.47;2.33;;;;;;;16.80;80.73;97144.53;4974888;28;20038;-64
2021/08/31 10:17:52;;;;;;;8.32;3.55;;;;;;;17.54;75.17;97140.00;4982447;28;20033;-66
2021/08/31 10:20:21;;;;;;;5.60;3.28;;;;;;;17.09;77.46;97142.53;4976712;28;20168;-65
2021/08/31 10:22:47;;;;;;;4.20;2.75;;;;;;;17.48;74.79;97143.59;4981284;28;20034;-66
2021/08/31 10:25:13;;;;;;;4.97;2.88;;;;;;;17.61;74.01;97144.75;4974889;28;20587;-65
2021/08/31 10:27:41;;;;;;;3.90;2.58;;;;;;;17.52;75.20;97149.91;4979365;28;20046;-66
2021/08/31 10:30:12;;;;;;;4.97;3.25;;;;;;;18.00;73.10;97142.97;4975922;28;20519;-65
2021/08/31 10:32:39;;;;;;;5.72;2.70;;;;;;;17.98;74.82;97150.91;4980150;28;20054;-64
2021/08/31 10:35:05;;;;;;;4.88;2.97;;;;;;;17.49;74.81;97143.19;4979188;28;20458;-62
2021/08/31 10:37:44;;;;;;;5.47;3.38;;;;;;;18.13;71.18;97144.06;4962600;28;20052;-64
2021/08/31 10:40:10;;;;;;;4.30;2.58;;;;;;;18.70;69.67;97140.09;4971512;28;20177;-64
2021/08/31 10:42:36;;;;;;;6.25;2.72;;;;;;;17.63;73.03;97149.84;4988531;28;20046;-65
2021/08/31 10:45:24;;;;;;;5.40;3.10;;;;;;;18.20;72.63;97144.03;4978849;28;20050;-65
2021/08/31 10:47:51;;;;;;;4.05;2.92;;;;;;;17.63;73.69;97142.34;4960632;28;20512;-65
2021/08/31 10:50:20;;;;;;;4.15;2.65;;;;;;;18.39;73.21;97150.25;4972373;28;20038;-64
2021/08/31 10:52:50;;;;;;;4.50;2.50;;;;;;;17.96;71.25;97137.47;4976159;28;20042;-65
2021/08/31 10:55:18;;;;;;;3.40;2.15;;;;;;;18.12;71.40;97150.81;4974380;28;20050;-65
2021/08/31 10:57:45;;;;;;;4.75;2.45;;;;;;;18.04;71.16;97144.53;4981973;28;20062;-65
2021/08/31 11:00:16;;;;;;;4.03;2.55;;;;;;;17.91;73.01;97143.41;4979680;28;20065;-65
2021/08/31 11:02:51;;;;;;;4.18;2.70;;;;;;;17.82;74.35;97143.03;4979485;28;20108;-65
2021/08/31 11:05:24;;;;;;;4.90;2.83;;;;;;;18.11;73.91;97138.16;4971747;28;20544;-65
2021/08/31 11:08:12;;;;;;;5.43;2.67;;;;;;;18.21;71.86;97142.06;4979704;28;20491;-65
2021/08/31 11:10:42;;;;;;;3.67;2.40;;;;;;;17.87;71.78;97142.66;4978605;28;20054;-63
2021/08/31 11:13:09;;;;;;;3.65;2.35;;;;;;;17.62;74.53;97139.97;4972201;28;20057;-62
2021/08/31 11:15:38;;;;;;;3.38;2.20;;;;;;;17.37;77.85;97151.94;4946685;28;20093;-65
2021/08/31 11:18:11;;;;;;;3.72;2.63;;;;;;;17.80;74.67;97146.22;4958566;28;20042;-63
2021/08/31 11:20:39;;;;;;;5.05;3.38;;;;;;;17.52;78.91;97147.13;4977350;28;20043;-61
2021/08/31 11:23:04;;;;;;;3.70;2.63;;;;;;;17.36;80.17;97147.59;4955932;28;20057;-62